Time;durP1;ratioP1;P1;durP2;ratioP2;P2;SDS_P1;SDS_P2;PMS_P1;PMS_P2;Temp;Humidity;BMP_temperature;BMP_pressure;BME280_temperature;BME280_humidity;BME280_pressure;Samples;Min_cycle;Max_cycle;Signal;HPM_P1;HPM_P2
2024/01/29 00:02:44;;;;;;;18.60;6.43;;;;;;;;;;6076978;23;20167;-91
2024/01/29 00:05:51;;;;;;;15.10;6.23;;;;;;;;;;6077272;23;20711;-94
2024/01/29 00:08:57;;;;;;;17.40;5.50;;;;;;;;;;6076591;23;20171;-90
2024/01/29 00:12:03;;;;;;;13.83;5.97;;;;;;;;;;6078374;23;20155;-91
2024/01/29 00:15:08;;;;;;;17.20;6.20;;;;;;;;;;6076832;23;20167;-93
2024/01/29 00:18:14;;;;;;;17.43;6.43;;;;;;;;;;6075837;23;20171;-91
2024/01/29 00:21:21;;;;;;;13.43;5.30;;;;;;;;;;6058188;23;20604;-92
2024/01/29 00:24:26;;;;;;;18.27;5.53;;;;;;;;;;6057389;23;20191;-91
2024/01/29 00:27:32;;;;;;;15.27;5.70;;;;;;;;;;6075841;23;20159;-93
2024/01/29 00:30:42;;;;;;;13.67;6.20;;;;;;;;;;6074130;23;20174;-95
2024/01/29 00:33:48;;;;;;;17.50;5.90;;;;;;;;;;6075034;23;20187;-93
2024/01/29 00:36:55;;;;;;;12.80;5.47;;;;;;;;;;6073551;23;20174;-92
2024/01/29 00:40:00;;;;;;;14.47;5.23;;;;;;;;;;6074346;23;20171;-92
2024/01/29 00:43:06;;;;;;;15.17;5.13;;;;;;;;;;6073095;23;20163;-90
2024/01/29 00:46:12;;;;;;;13.13;5.53;;;;;;;;;;6057449;23;20212;-92
2024/01/29 00:49:17;;;;;;;14.80;5.60;;;;;;;;;;6074908;23;20240;-92
2024/01/29 00:52:24;;;;;;;19.87;6.23;;;;;;;;;;6058988;23;20215;-91
2024/01/29 00:55:29;;;;;;;12.90;5.13;;;;;;;;;;6076328;23;20160;-91
2024/01/29 00:58:35;;;;;;;18.30;5.80;;;;;;;;;;6074457;23;20680;-92
2024/01/29 01:01:40;;;;;;;14.50;5.83;;;;;;;;;;6074783;23;20195;-93
2024/01/29 01:04:46;;;;;;;16.70;6.00;;;;;;;;;;6073787;23;20172;-92
2024/01/29 01:07:53;;;;;;;17.43;5.73;;;;;;;;;;6074662;23;20223;-92
2024/01/29 01:10:59;;;;;;;17.63;5.20;;;;;;;;;;6058448;23;20511;-93
2024/01/29 01:14:04;;;;;;;16.67;5.60;;;;;;;;;;6078360;23;20234;-90
2024/01/29 01:17:10;;;;;;;11.00;5.03;;;;;;;;;;6075790;23;20243;-93
2024/01/29 01:20:16;;;;;;;13.17;4.87;;;;;;;;;;6076987;23;20167;-90
2024/01/29 01:23:24;;;;;;;10.60;4.50;;;;;;;;;;6076189;23;20225;-93
2024/01/29 01:26:29;;;;;;;16.23;4.77;;;;;;;;;;6075310;23;20247;-92
2024/01/29 01:29:35;;;;;;;9.47;4.40;;;;;;;;;;6074236;23;20151;-93
2024/01/29 01:32:40;;;;;;;17.40;5.43;;;;;;;;;;6058552;23;20163;-92
2024/01/29 01:35:46;;;;;;;14.57;4.40;;;;;;;;;;6073552;23;20192;-93
2024/01/29 01:38:54;;;;;;;13.90;4.20;;;;;;;;;;6073130;23;20171;-92
2024/01/29 01:41:59;;;;;;;11.77;4.40;;;;;;;;;;6073583;23;20216;-92
2024/01/29 01:45:05;;;;;;;11.27;4.70;;;;;;;;;;6073498;23;20166;-92
2024/01/29 01:48:11;;;;;;;10.87;4.03;;;;;;;;;;6075096;23;20172;-91
2024/01/29 01:51:17;;;;;;;14.40;4.47;;;;;;;;;;6057323;23;20212;-90
2024/01/29 01:54:24;;;;;;;13.50;4.40;;;;;;;;;;6073831;23;20187;-93
2024/01/29 01:57:30;;;;;;;14.13;4.37;;;;;;;;;;6074103;23;20180;-91
2024/01/29 02:00:36;;;;;;;13.47;5.20;;;;;;;;;;6080411;23;20258;-93
2024/01/29 02:03:43;;;;;;;12.23;4.40;;;;;;;;;;6069820;23;20170;-93
2024/01/29 02:06:48;;;;;;;13.43;5.00;;;;;;;;;;6069587;23;20239;-92
2024/01/29 02:09:56;;;;;;;11.23;4.93;;;;;;;;;;6069554;23;20174;-93
2024/01/29 02:13:01;;;;;;;11.30;4.87;;;;;;;;;;6069124;23;20173;-91
2024/01/29 02:16:07;;;;;;;15.90;5.57;;;;;;;;;;6071217;23;20162;-94
2024/01/29 02:19:15;;;;;;;14.73;4.90;;;;;;;;;;6070858;23;20659;-92
2024/01/29 02:22:20;;;;;;;11.93;4.80;;;;;;;;;;6070498;23;20227;-93
2024/01/29 02:25:27;;;;;;;13.87;5.70;;;;;;;;;;6070931;23;20155;-92
2024/01/29 02:28:32;;;;;;;11.20;4.73;;;;;;;;;;6070750;23;20245;-93
2024/01/29 02:31:38;;;;;;;11.80;5.10;;;;;;;;;;6068651;23;20671;-92
2024/01/29 02:34:43;;;;;;;11.83;4.97;;;;;;;;;;6070548;23;20154;-90
2024/01/29 02:37:48;;;;;;;14.73;4.83;;;;;;;;;;6072281;23;20270;-91
2024/01/29 02:40:55;;;;;;;10.97;4.00;;;;;;;;;;6069856;23;20169;-93
2024/01/29 02:44:01;;;;;;;10.60;4.40;;;;;;;;;;6069497;23;20167;-91
2024/01/29 02:47:07;;;;;;;8.90;4.47;;;;;;;;;;6069852;23;20201;-91
2024/01/29 02:50:12;;;;;;;14.93;5.17;;;;;;;;;;6084443;23;20163;-93
2024/01/29 02:53:17;;;;;;;13.40;4.43;;;;;;;;;;6069095;23;20187;-92
2024/01/29 02:56:24;;;;;;;10.50;4.90;;;;;;;;;;6068849;23;20175;-93
2024/01/29 02:59:29;;;;;;;13.30;4.63;;;;;;;;;;6068458;23;20204;-91
2024/01/29 03:02:35;;;;;;;12.73;5.17;;;;;;;;;;6070600;23;20211;-92
2024/01/29 03:05:41;;;;;;;12.20;4.50;;;;;;;;;;6086601;23;20637;-91
2024/01/29 03:08:46;;;;;;;15.27;4.90;;;;;;;;;;6070092;23;20155;-92
2024/01/29 03:11:53;;;;;;;10.67;3.87;;;;;;;;;;6068590;23;20174;-91
2024/01/29 03:14:59;;;;;;;14.57;5.43;;;;;;;;;;6071342;23;20170;-93
2024/01/29 03:18:05;;;;;;;15.43;5.50;;;;;;;;;;6070577;23;20236;-92
2024/01/29 03:21:10;;;;;;;10.90;4.93;;;;;;;;;;6069061;23;20170;-94
2024/01/29 03:24:16;;;;;;;21.03;5.80;;;;;;;;;;6068862;23;20155;-90
2024/01/29 03:27:22;;;;;;;17.07;5.57;;;;;;;;;;6068672;23;20250;-93
2024/01/29 03:30:29;;;;;;;10.57;4.77;;;;;;;;;;6069044;23;20151;-92
2024/01/29 03:33:34;;;;;;;12.93;4.80;;;;;;;;;;6070111;23;20686;-92
2024/01/29 03:36:39;;;;;;;9.40;4.47;;;;;;;;;;6069770;23;20227;-92
2024/01/29 03:39:45;;;;;;;9.67;4.70;;;;;;;;;;6068945;23;20166;-91
2024/01/29 03:42:52;;;;;;;10.33;4.57;;;;;;;;;;6068980;23;20179;-93
2024/01/29 03:45:57;;;;;;;8.73;4.13;;;;;;;;;;6068410;23;20219;-91
2024/01/29 03:49:03;;;;;;;9.03;4.50;;;;;;;;;;6068666;23;20171;-90
2024/01/29 03:52:08;;;;;;;15.93;5.17;;;;;;;;;;6068887;23;20219;-91
2024/01/29 03:55:13;;;;;;;8.67;3.80;;;;;;;;;;6069098;23;20187;-92
2024/01/29 03:58:20;;;;;;;11.53;5.13;;;;;;;;;;6070586;23;20175;-93
2024/01/29 04:01:29;;;;;;;12.93;5.93;;;;;;;;;;6069422;23;20193;-93
2024/01/29 04:04:34;;;;;;;17.27;5.37;;;;;;;;;;6070167;23;20215;-91
2024/01/29 04:07:39;;;;;;;14.27;5.57;;;;;;;;;;6071314;23;20211;-92
2024/01/29 04:10:45;;;;;;;13.93;5.97;;;;;;;;;;6071227;23;20222;-91
2024/01/29 04:13:52;;;;;;;17.47;5.47;;;;;;;;;;6071951;23;20171;-92
2024/01/29 04:16:58;;;;;;;10.67;4.87;;;;;;;;;;6071851;23;20180;-91
2024/01/29 04:20:05;;;;;;;14.10;5.73;;;;;;;;;;6072397;23;20154;-92
2024/01/29 04:23:10;;;;;;;11.40;5.20;;;;;;;;;;6086945;23;20215;-90
2024/01/29 04:26:16;;;;;;;11.73;5.63;;;;;;;;;;6068374;23;20202;-92
2024/01/29 04:29:23;;;;;;;7.90;3.93;;;;;;;;;;6086682;23;20172;-93
2024/01/29 04:32:29;;;;;;;12.57;5.07;;;;;;;;;;6070235;23;20299;-93
2024/01/29 04:35:34;;;;;;;10.97;5.03;;;;;;;;;;6071206;23;20170;-95
2024/01/29 04:38:39;;;;;;;19.03;4.93;;;;;;;;;;6072645;23;20174;-94
2024/01/29 04:41:44;;;;;;;13.57;4.67;;;;;;;;;;6070853;23;20170;-92
2024/01/29 04:44:52;;;;;;;6.27;2.87;;;;;;;;;;6071350;23;20171;-91
2024/01/29 04:47:57;;;;;;;8.93;3.53;;;;;;;;;;6086842;23;20202;-92
2024/01/29 04:51:07;;;;;;;14.07;5.47;;;;;;;;;;6072206;23;20162;-92
2024/01/29 04:54:13;;;;;;;13.40;5.17;;;;;;;;;;6070951;23;20195;-91
2024/01/29 04:57:20;;;;;;;13.73;5.50;;;;;;;;;;6070937;23;20162;-91
2024/01/29 05:32:44;;;;;;;13.27;5.50;;;;;;;;;;6077157;22;20180;-93
2024/01/29 05:35:51;;;;;;;10.93;5.30;;;;;;;;;;6185999;22;20163;-91
2024/01/29 05:38:57;;;;;;;13.47;5.77;;;;;;;;;;6188360;22;20151;-94
2024/01/29 05:42:13;;;;;;;14.57;5.70;;;;;;;;;;6187166;22;20577;-94
2024/01/29 05:45:18;;;;;;;14.13;6.23;;;;;;;;;;6187736;22;20176;-92
2024/01/29 05:48:25;;;;;;;14.40;6.03;;;;;;;;;;6190413;23;20163;-89
2024/01/29 05:51:34;;;;;;;11.93;5.50;;;;;;;;;;6188608;22;20240;-92
2024/01/29 05:54:40;;;;;;;14.90;5.27;;;;;;;;;;6185988;23;20152;-90
2024/01/29 05:57:45;;;;;;;17.97;6.73;;;;;;;;;;6186528;22;20160;-93
2024/01/29 06:00:51;;;;;;;14.20;5.73;;;;;;;;;;6187762;22;20176;-91
2024/01/29 06:04:15;;;;;;;14.40;6.13;;;;;;;;;;6187982;22;20151;-91
2024/01/29 06:07:25;;;;;;;15.53;6.27;;;;;;;;;;6187020;22;20183;-89
2024/01/29 06:10:31;;;;;;;16.70;6.80;;;;;;;;;;6187765;22;20200;-90
2024/01/29 06:13:37;;;;;;;16.97;7.10;;;;;;;;;;6189470;22;20211;-90
2024/01/29 06:20:03;;;;;;;15.20;7.73;;;;;;;;;;6189798;23;20280;-90
2024/01/29 06:23:14;;;;;;;14.73;6.93;;;;;;;;;;6188303;22;20155;-91
2024/01/29 12:06:40;;;;;;;12.90;5.53;;;;;;;;;;6070802;23;20267;-91
2024/01/29 12:09:46;;;;;;;17.00;5.93;;;;;;;;;;6131597;23;20168;-91
2024/01/29 16:19:23;;;;;;;27.00;8.43;;;;;;;;;;6123447;23;20335;-93
2024/01/29 20:05:48;;;;;;;31.90;9.60;;;;;;;;;;6084751;23;20206;-92
2024/01/29 20:08:56;;;;;;;24.77;8.57;;;;;;;;;;6103655;23;20254;-93
2024/01/29 23:09:09;;;;;;;37.03;12.97;;;;;;;;;;6131020;23;20200;-92
2024/01/29 23:12:23;;;;;;;25.70;10.70;;;;;;;;;;6130556;23;20169;-92
2024/01/29 23:15:29;;;;;;;33.37;13.00;;;;;;;;;;6127564;23;20190;-93
2024/01/29 23:18:35;;;;;;;31.07;12.13;;;;;;;;;;6130586;23;20193;-91
2024/01/29 23:25:10;;;;;;;30.73;12.10;;;;;;;;;;6131301;23;20173;-94
2024/01/29 23:28:17;;;;;;;29.77;10.73;;;;;;;;;;6148924;23;20722;-93
2024/01/29 23:31:23;;;;;;;28.33;10.90;;;;;;;;;;6130534;23;20169;-94
2024/01/29 23:34:28;;;;;;;37.93;11.97;;;;;;;;;;6129875;23;20173;-93
2024/01/29 23:37:36;;;;;;;31.00;11.37;;;;;;;;;;6128768;23;20174;-94
2024/01/29 23:40:42;;;;;;;30.87;12.13;;;;;;;;;;6130606;23;20170;-94
2024/01/29 23:43:47;;;;;;;27.37;10.80;;;;;;;;;;6129983;23;20174;-94
2024/01/29 23:46:55;;;;;;;29.27;11.50;;;;;;;;;;6130236;23;20169;-93
2024/01/29 23:50:03;;;;;;;29.23;12.13;;;;;;;;;;6132099;23;20194;-93
2024/01/29 23:53:16;;;;;;;27.03;11.33;;;;;;;;;;6120984;23;20220;-91
